sensor_id;sensor_type;location;lat;lon;timestamp;pressure;altitude;pressure_sealevel;temperature;humidity
67818;BME280;54614;47.576;7.524;2023-11-21T00:00:19;98050.69;;;22.91;42.32
67818;BME280;54614;47.576;7.524;2023-11-21T00:02:46;98056.88;;;22.91;42.39
67818;BME280;54614;47.576;7.524;2023-11-21T00:05:13;98050.69;;;22.91;42.27
67818;BME280;54614;47.576;7.524;2023-11-21T00:07:41;98057.09;;;22.90;42.34
67818;BME280;54614;47.576;7.524;2023-11-21T00:10:08;98057.91;;;22.90;42.20
67818;BME280;54614;47.576;7.524;2023-11-21T00:12:35;98052.31;;;22.92;42.64
67818;BME280;54614;47.576;7.524;2023-11-21T00:15:01;98058.94;;;22.89;42.34
67818;BME280;54614;47.576;7.524;2023-11-21T00:17:28;98052.53;;;22.90;42.28
67818;BME280;54614;47.576;7.524;2023-11-21T00:19:54;98056.25;;;22.89;42.65
67818;BME280;54614;47.576;7.524;2023-11-21T00:22:20;98056.69;;;22.86;42.50
67818;BME280;54614;47.576;7.524;2023-11-21T00:24:46;98048.44;;;22.88;42.48
67818;BME280;54614;47.576;7.524;2023-11-21T00:27:13;98043.06;;;22.88;42.55
67818;BME280;54614;47.576;7.524;2023-11-21T00:29:40;98037.91;;;22.86;42.42
67818;BME280;54614;47.576;7.524;2023-11-21T00:32:06;98031.53;;;22.87;42.23
67818;BME280;54614;47.576;7.524;2023-11-21T00:34:33;98038.94;;;22.85;42.44
67818;BME280;54614;47.576;7.524;2023-11-21T00:36:59;98034.41;;;22.86;42.17
67818;BME280;54614;47.576;7.524;2023-11-21T00:39:24;98026.59;;;22.84;42.25
67818;BME280;54614;47.576;7.524;2023-11-21T00:41:52;98024.50;;;22.86;42.47
67818;BME280;54614;47.576;7.524;2023-11-21T00:44:18;98022.88;;;22.85;42.76
67818;BME280;54614;47.576;7.524;2023-11-21T00:46:44;98020.19;;;22.85;42.26
67818;BME280;54614;47.576;7.524;2023-11-21T00:49:10;98008.63;;;22.85;42.36
67818;BME280;54614;47.576;7.524;2023-11-21T00:51:35;98016.69;;;22.85;42.48
67818;BME280;54614;47.576;7.524;2023-11-21T00:54:02;98020.19;;;22.85;42.29
67818;BME280;54614;47.576;7.524;2023-11-21T00:56:28;98022.25;;;22.83;42.34
67818;BME280;54614;47.576;7.524;2023-11-21T00:58:54;98020.19;;;22.85;42.44
67818;BME280;54614;47.576;7.524;2023-11-21T01:01:21;98029.25;;;22.84;42.63
67818;BME280;54614;47.576;7.524;2023-11-21T01:03:50;98031.13;;;22.83;42.34
67818;BME280;54614;47.576;7.524;2023-11-21T01:06:16;98030.31;;;22.83;42.26
67818;BME280;54614;47.576;7.524;2023-11-21T01:08:43;98030.31;;;22.83;42.21
67818;BME280;54614;47.576;7.524;2023-11-21T01:11:10;98026.78;;;22.82;42.49
67818;BME280;54614;47.576;7.524;2023-11-21T01:13:41;98020.59;;;22.82;42.37
67818;BME280;54614;47.576;7.524;2023-11-21T01:16:08;98009.66;;;22.83;42.61
67818;BME280;54614;47.576;7.524;2023-11-21T01:18:35;98010.72;;;22.82;42.19
67818;BME280;54614;47.576;7.524;2023-11-21T01:21:01;98009.88;;;22.82;42.56
67818;BME280;54614;47.576;7.524;2023-11-21T01:23:27;98014.44;;;22.81;42.14
67818;BME280;54614;47.576;7.524;2023-11-21T01:25:56;98019.19;;;22.79;42.52
67818;BME280;54614;47.576;7.524;2023-11-21T01:28:22;98017.09;;;22.81;42.27
67818;BME280;54614;47.576;7.524;2023-11-21T01:30:49;98014.63;;;22.80;42.43
67818;BME280;54614;47.576;7.524;2023-11-21T01:33:15;98014.44;;;22.81;42.38
67818;BME280;54614;47.576;7.524;2023-11-21T01:35:44;98016.28;;;22.81;42.28
67818;BME280;54614;47.576;7.524;2023-11-21T01:38:12;98010.91;;;22.81;42.47
67818;BME280;54614;47.576;7.524;2023-11-21T01:40:37;98020.59;;;22.82;42.35
67818;BME280;54614;47.576;7.524;2023-11-21T01:43:03;98021.66;;;22.81;42.28
67818;BME280;54614;47.576;7.524;2023-11-21T01:45:30;98025.53;;;22.78;42.31
67818;BME280;54614;47.576;7.524;2023-11-21T01:48:00;98023.91;;;22.77;42.33
67818;BME280;54614;47.576;7.524;2023-11-21T01:50:26;98016.69;;;22.78;42.41
67818;BME280;54614;47.576;7.524;2023-11-21T01:52:53;98014.00;;;22.78;42.45
67818;BME280;54614;47.576;7.524;2023-11-21T01:55:20;98014.00;;;22.78;42.20
67818;BME280;54614;47.576;7.524;2023-11-21T01:57:46;98015.84;;;22.77;42.48
67818;BME280;54614;47.576;7.524;2023-11-21T02:00:13;98013.19;;;22.77;42.54
67818;BME280;54614;47.576;7.524;2023-11-21T02:02:46;98018.53;;;22.77;42.23
67818;BME280;54614;47.576;7.524;2023-11-21T02:05:14;98017.72;;;22.77;42.31
67818;BME280;54614;47.576;7.524;2023-11-21T02:07:41;98010.72;;;22.76;42.28
67818;BME280;54614;47.576;7.524;2023-11-21T02:10:11;98011.53;;;22.76;42.14
67818;BME280;54614;47.576;7.524;2023-11-21T02:12:41;98010.72;;;22.76;42.46
67818;BME280;54614;47.576;7.524;2023-11-21T02:15:10;98013.19;;;22.77;42.33
67818;BME280;54614;47.576;7.524;2023-11-21T02:17:43;98010.50;;;22.77;42.06
67818;BME280;54614;47.576;7.524;2023-11-21T02:20:11;98010.72;;;22.76;42.38
67818;BME280;54614;47.576;7.524;2023-11-21T02:22:43;98015.25;;;22.75;42.24
67818;BME280;54614;47.576;7.524;2023-11-21T02:25:09;98016.28;;;22.74;42.59
67818;BME280;54614;47.576;7.524;2023-11-21T02:27:35;98013.38;;;22.76;42.16
67818;BME280;54614;47.576;7.524;2023-11-21T02:30:02;98014.22;;;22.76;42.35
67818;BME280;54614;47.576;7.524;2023-11-21T02:32:30;98017.09;;;22.75;42.13
67818;BME280;54614;47.576;7.524;2023-11-21T02:34:57;98010.09;;;22.74;42.00
67818;BME280;54614;47.576;7.524;2023-11-21T02:37:26;98006.00;;;22.71;42.51
67818;BME280;54614;47.576;7.524;2023-11-21T02:39:52;98003.09;;;22.73;42.28
67818;BME280;54614;47.576;7.524;2023-11-21T02:42:18;98005.56;;;22.74;42.11
67818;BME280;54614;47.576;7.524;2023-11-21T02:44:44;98001.44;;;22.72;41.93
67818;BME280;54614;47.576;7.524;2023-11-21T02:47:10;97995.88;;;22.73;42.26
67818;BME280;54614;47.576;7.524;2023-11-21T02:49:36;98000.63;;;22.71;42.30
67818;BME280;54614;47.576;7.524;2023-11-21T02:52:02;98004.75;;;22.74;42.11
67818;BME280;54614;47.576;7.524;2023-11-21T02:54:28;97995.25;;;22.71;41.95
67818;BME280;54614;47.576;7.524;2023-11-21T02:56:53;97989.28;;;22.69;42.08
67818;BME280;54614;47.576;7.524;2023-11-21T02:59:19;97984.31;;;22.73;42.33
67818;BME280;54614;47.576;7.524;2023-11-21T03:01:45;97985.16;;;22.73;41.87
67818;BME280;54614;47.576;7.524;2023-11-21T03:04:12;97984.53;;;22.71;42.03
67818;BME280;54614;47.576;7.524;2023-11-21T03:06:44;97984.75;;;22.70;42.33
67818;BME280;54614;47.576;7.524;2023-11-21T03:09:11;97987.44;;;22.70;42.35
67818;BME280;54614;47.576;7.524;2023-11-21T03:11:40;97984.75;;;22.70;42.21
67818;BME280;54614;47.576;7.524;2023-11-21T03:14:05;97982.91;;;22.70;42.28
67818;BME280;54614;47.576;7.524;2023-11-21T03:16:35;97980.44;;;22.69;42.25
67818;BME280;54614;47.576;7.524;2023-11-21T03:19:01;97997.34;;;22.69;42.25
67818;BME280;54614;47.576;7.524;2023-11-21T03:21:27;97987.66;;;22.68;42.08
67818;BME280;54614;47.576;7.524;2023-11-21T03:23:52;97987.66;;;22.68;42.07
67818;BME280;54614;47.576;7.524;2023-11-21T03:26:18;97989.28;;;22.69;42.26
67818;BME280;54614;47.576;7.524;2023-11-21T03:28:44;97991.38;;;22.67;42.24
67818;BME280;54614;47.576;7.524;2023-11-21T03:31:11;97993.22;;;22.67;41.99
67818;BME280;54614;47.576;7.524;2023-11-21T03:33:37;97994.88;;;22.68;42.17
67818;BME280;54614;47.576;7.524;2023-11-21T03:36:03;97997.53;;;22.68;41.92
67818;BME280;54614;47.576;7.524;2023-11-21T03:38:29;98002.28;;;22.66;41.99
67818;BME280;54614;47.576;7.524;2023-11-21T03:40:55;98006.63;;;22.67;42.34
67818;BME280;54614;47.576;7.524;2023-11-21T03:43:20;98003.94;;;22.67;42.38
67818;BME280;54614;47.576;7.524;2023-11-21T03:45:46;98003.94;;;22.67;42.02
67818;BME280;54614;47.576;7.524;2023-11-21T03:48:13;98007.66;;;22.66;42.35
67818;BME280;54614;47.576;7.524;2023-11-21T03:50:38;98001.25;;;22.67;41.79
67818;BME280;54614;47.576;7.524;2023-11-21T03:53:04;98003.13;;;22.66;42.06
67818;BME280;54614;47.576;7.524;2023-11-21T03:55:30;98003.34;;;22.65;42.02
67818;BME280;54614;47.576;7.524;2023-11-21T03:57:58;97997.97;;;22.65;42.21
67818;BME280;54614;47.576;7.524;2023-11-21T04:00:25;97999.63;;;22.66;41.83
67818;BME280;54614;47.576;7.524;2023-11-21T04:02:54;97993.44;;;22.65;41.86
67818;BME280;54614;47.576;7.524;2023-11-21T04:05:21;97994.47;;;22.64;42.17
67818;BME280;54614;47.576;7.524;2023-11-21T04:07:50;98000.88;;;22.63;41.91
67818;BME280;54614;47.576;7.524;2023-11-21T04:10:19;98003.53;;;22.63;42.07
67818;BME280;54614;47.576;7.524;2023-11-21T04:12:45;98010.78;;;22.63;42.09
67818;BME280;54614;47.576;7.524;2023-11-21T04:15:12;98015.09;;;22.64;41.72
67818;BME280;54614;47.576;7.524;2023-11-21T04:17:39;98015.31;;;22.62;41.95
67818;BME280;54614;47.576;7.524;2023-11-21T04:20:06;98020.44;;;22.64;41.93
67818;BME280;54614;47.576;7.524;2023-11-21T04:22:37;98016.94;;;22.63;41.82
67818;BME280;54614;47.576;7.524;2023-11-21T04:25:10;98019.03;;;22.61;42.29
67818;BME280;54614;47.576;7.524;2023-11-21T04:27:39;98017.16;;;22.62;41.81
67818;BME280;54614;47.576;7.524;2023-11-21T04:30:05;98021.50;;;22.63;41.77
67818;BME280;54614;47.576;7.524;2023-11-21T04:32:31;98030.34;;;22.63;42.25
67818;BME280;54614;47.576;7.524;2023-11-21T04:34:57;98037.78;;;22.61;41.96
67818;BME280;54614;47.576;7.524;2023-11-21T04:37:23;98035.09;;;22.61;41.93
67818;BME280;54614;47.576;7.524;2023-11-21T04:39:50;98032.41;;;22.61;41.93
67818;BME280;54614;47.576;7.524;2023-11-21T04:42:15;98031.59;;;22.61;41.98
67818;BME280;54614;47.576;7.524;2023-11-21T04:44:41;98037.78;;;22.61;42.07
67818;BME280;54614;47.576;7.524;2023-11-21T04:47:07;98036.75;;;22.62;41.97
67818;BME280;54614;47.576;7.524;2023-11-21T04:49:33;98027.28;;;22.60;41.92
67818;BME280;54614;47.576;7.524;2023-11-21T04:51:59;98026.03;;;22.62;41.91
67818;BME280;54614;47.576;7.524;2023-11-21T04:54:27;98029.75;;;22.61;42.17
67818;BME280;54614;47.576;7.524;2023-11-21T04:56:52;98029.34;;;22.58;42.14
67818;BME280;54614;47.576;7.524;2023-11-21T04:59:18;98029.34;;;22.58;42.10
67818;BME280;54614;47.576;7.524;2023-11-21T05:01:44;98028.72;;;22.56;42.14
67818;BME280;54614;47.576;7.524;2023-11-21T05:04:10;98033.06;;;22.57;42.38
67818;BME280;54614;47.576;7.524;2023-11-21T05:06:35;98038.41;;;22.57;42.34
67818;BME280;54614;47.576;7.524;2023-11-21T05:09:01;98038.00;;;22.60;43.28
67818;BME280;54614;47.576;7.524;2023-11-21T05:11:28;98033.25;;;22.62;45.92
67818;BME280;54614;47.576;7.524;2023-11-21T05:13:54;98040.03;;;22.64;43.66
67818;BME280;54614;47.576;7.524;2023-11-21T05:16:26;98038.78;;;22.67;43.62
67818;BME280;54614;47.576;7.524;2023-11-21T05:18:53;98047.03;;;22.72;44.35
67818;BME280;54614;47.576;7.524;2023-11-21T05:21:19;98043.31;;;22.73;43.92
67818;BME280;54614;47.576;7.524;2023-11-21T05:23:46;98043.09;;;22.74;43.87
67818;BME280;54614;47.576;7.524;2023-11-21T05:26:12;98040.00;;;22.77;43.68
67818;BME280;54614;47.576;7.524;2023-11-21T05:28:37;98044.97;;;22.80;43.76
67818;BME280;54614;47.576;7.524;2023-11-21T05:31:03;98044.31;;;22.85;43.73
67818;BME280;54614;47.576;7.524;2023-11-21T05:33:29;98043.88;;;22.88;43.67
67818;BME280;54614;47.576;7.524;2023-11-21T05:35:55;98043.47;;;22.91;43.37
67818;BME280;54614;47.576;7.524;2023-11-21T05:38:20;98034.16;;;22.94;43.48
67818;BME280;54614;47.576;7.524;2023-11-21T05:40:47;98040.34;;;22.94;43.27
67818;BME280;54614;47.576;7.524;2023-11-21T05:43:13;98040.13;;;22.96;43.60
67818;BME280;54614;47.576;7.524;2023-11-21T05:45:39;98044.25;;;22.98;43.28
67818;BME280;54614;47.576;7.524;2023-11-21T05:48:04;98050.22;;;23.00;43.27
67818;BME280;54614;47.576;7.524;2023-11-21T05:50:31;98046.25;;;23.09;43.75
67818;BME280;54614;47.576;7.524;2023-11-21T05:52:58;98047.69;;;23.12;43.85
67818;BME280;54614;47.576;7.524;2023-11-21T05:55:26;98050.97;;;23.14;43.85
67818;BME280;54614;47.576;7.524;2023-11-21T05:57:51;98059.59;;;23.23;43.62
67818;BME280;54614;47.576;7.524;2023-11-21T06:00:17;98052.19;;;23.18;43.79
67818;BME280;54614;47.576;7.524;2023-11-21T06:02:49;98055.84;;;23.30;43.47
67818;BME280;54614;47.576;7.524;2023-11-21T06:05:18;98054.84;;;23.25;43.88
67818;BME280;54614;47.576;7.524;2023-11-21T06:07:45;98055.66;;;23.25;43.72
67818;BME280;54614;47.576;7.524;2023-11-21T06:10:12;98057.53;;;23.25;43.46
67818;BME280;54614;47.576;7.524;2023-11-21T06:12:40;98060.16;;;23.31;43.45
67818;BME280;54614;47.576;7.524;2023-11-21T06:15:09;98056.47;;;23.26;43.83
67818;BME280;54614;47.576;7.524;2023-11-21T06:17:40;98062.25;;;23.29;43.76
67818;BME280;54614;47.576;7.524;2023-11-21T06:20:08;98060.38;;;23.30;43.88
67818;BME280;54614;47.576;7.524;2023-11-21T06:22:37;98064.09;;;23.29;43.72
67818;BME280;54614;47.576;7.524;2023-11-21T06:25:03;98062.06;;;23.24;44.14
67818;BME280;54614;47.576;7.524;2023-11-21T06:27:37;98069.47;;;23.29;43.93
67818;BME280;54614;47.576;7.524;2023-11-21T06:30:03;98070.69;;;23.33;43.63
67818;BME280;54614;47.576;7.524;2023-11-21T06:32:29;98068.81;;;23.33;45.71
67818;BME280;54614;47.576;7.524;2023-11-21T06:34:56;98067.34;;;23.37;45.38
67818;BME280;54614;47.576;7.524;2023-11-21T06:37:28;98077.59;;;23.47;50.00
67818;BME280;54614;47.576;7.524;2023-11-21T06:39:55;98080.25;;;23.54;50.99
67818;BME280;54614;47.576;7.524;2023-11-21T06:42:22;98090.16;;;23.60;50.31
67818;BME280;54614;47.576;7.524;2023-11-21T06:44:50;98086.03;;;23.57;49.27
67818;BME280;54614;47.576;7.524;2023-11-21T06:47:25;98094.09;;;23.57;48.95
67818;BME280;54614;47.576;7.524;2023-11-21T06:49:52;98087.28;;;23.55;46.86
67818;BME280;54614;47.576;7.524;2023-11-21T06:52:19;98103.41;;;23.55;45.79
67818;BME280;54614;47.576;7.524;2023-11-21T06:54:47;98093.88;;;23.52;46.47
67818;BME280;54614;47.576;7.524;2023-11-21T06:57:13;98098.47;;;23.45;46.08
67818;BME280;54614;47.576;7.524;2023-11-21T06:59:39;98099.94;;;23.41;46.10
67818;BME280;54614;47.576;7.524;2023-11-21T07:02:05;98104.84;;;23.51;46.11
67818;BME280;54614;47.576;7.524;2023-11-21T07:04:33;98100.97;;;23.40;45.58
67818;BME280;54614;47.576;7.524;2023-11-21T07:06:59;98101.19;;;23.38;45.32
67818;BME280;54614;47.576;7.524;2023-11-21T07:09:25;98098.13;;;23.35;45.53
67818;BME280;54614;47.576;7.524;2023-11-21T07:11:52;98104.31;;;23.35;45.33
67818;BME280;54614;47.576;7.524;2023-11-21T07:14:18;98107.38;;;23.39;46.07
67818;BME280;54614;47.576;7.524;2023-11-21T07:16:46;98102.84;;;23.39;45.69
67818;BME280;54614;47.576;7.524;2023-11-21T07:19:12;98109.03;;;23.40;46.23
67818;BME280;54614;47.576;7.524;2023-11-21T07:21:39;98105.31;;;23.41;46.17
67818;BME280;54614;47.576;7.524;2023-11-21T07:24:06;98105.13;;;23.36;45.75
67818;BME280;54614;47.576;7.524;2023-11-21T07:26:33;98103.28;;;23.36;45.92
67818;BME280;54614;47.576;7.524;2023-11-21T07:29:03;98113.41;;;23.34;45.50
67818;BME280;54614;47.576;7.524;2023-11-21T07:31:29;98115.88;;;23.36;44.71
67818;BME280;54614;47.576;7.524;2023-11-21T07:33:56;98120.41;;;23.35;43.76
67818;BME280;54614;47.576;7.524;2023-11-21T07:36:24;98124.75;;;23.36;44.75
67818;BME280;54614;47.576;7.524;2023-11-21T07:38:51;98123.53;;;23.32;44.35
67818;BME280;54614;47.576;7.524;2023-11-21T07:41:18;98132.00;;;23.29;45.10
67818;BME280;54614;47.576;7.524;2023-11-21T07:43:47;98133.44;;;23.32;45.09
67818;BME280;54614;47.576;7.524;2023-11-21T07:46:13;98132.63;;;23.31;45.08
67818;BME280;54614;47.576;7.524;2023-11-21T07:48:40;98136.97;;;23.26;45.08
67818;BME280;54614;47.576;7.524;2023-11-21T07:51:08;98141.09;;;23.28;44.51
67818;BME280;54614;47.576;7.524;2023-11-21T07:53:35;98140.69;;;23.25;44.71
67818;BME280;54614;47.576;7.524;2023-11-21T07:56:06;98137.81;;;23.26;44.02
67818;BME280;54614;47.576;7.524;2023-11-21T07:58:36;98140.63;;;23.38;44.61
67818;BME280;54614;47.576;7.524;2023-11-21T08:01:03;98143.16;;;23.26;44.40
67818;BME280;54614;47.576;7.524;2023-11-21T08:03:30;98141.31;;;23.27;44.46
67818;BME280;54614;47.576;7.524;2023-11-21T08:05:59;98143.94;;;23.40;44.14
67818;BME280;54614;47.576;7.524;2023-11-21T08:08:25;98140.03;;;23.36;44.10
67818;BME280;54614;47.576;7.524;2023-11-21T08:10:52;98143.31;;;23.38;44.07
67818;BME280;54614;47.576;7.524;2023-11-21T08:13:28;98147.22;;;23.42;43.82
67818;BME280;54614;47.576;7.524;2023-11-21T08:15:57;98148.25;;;23.41;43.76
67818;BME280;54614;47.576;7.524;2023-11-21T08:18:27;98159.00;;;23.41;43.80
67818;BME280;54614;47.576;7.524;2023-11-21T08:20:54;98155.47;;;23.40;43.29
67818;BME280;54614;47.576;7.524;2023-11-21T08:23:21;98157.34;;;23.40;43.63
67818;BME280;54614;47.576;7.524;2023-11-21T08:25:51;98158.56;;;23.44;43.89
67818;BME280;54614;47.576;7.524;2023-11-21T08:28:17;98152.59;;;23.42;43.76
67818;BME280;54614;47.576;7.524;2023-11-21T08:30:43;98155.91;;;23.37;43.69
67818;BME280;54614;47.576;7.524;2023-11-21T08:33:10;98153.41;;;23.42;43.83
67818;BME280;54614;47.576;7.524;2023-11-21T08:35:37;98160.47;;;23.37;43.92
67818;BME280;54614;47.576;7.524;2023-11-21T08:38:04;98158.38;;;23.39;44.10
67818;BME280;54614;47.576;7.524;2023-11-21T08:40:30;98155.09;;;23.37;43.92
67818;BME280;54614;47.576;7.524;2023-11-21T08:42:56;98155.31;;;23.35;43.85
67818;BME280;54614;47.576;7.524;2023-11-21T08:45:25;98160.84;;;23.40;43.92
67818;BME280;54614;47.576;7.524;2023-11-21T08:47:51;98161.06;;;23.39;43.42
67818;BME280;54614;47.576;7.524;2023-11-21T08:50:18;98162.13;;;23.31;43.66
67818;BME280;54614;47.576;7.524;2023-11-21T08:52:45;98160.03;;;23.40;43.65
67818;BME280;54614;47.576;7.524;2023-11-21T08:55:11;98169.13;;;23.39;43.77
67818;BME280;54614;47.576;7.524;2023-11-21T08:57:43;98168.91;;;23.40;43.43
67818;BME280;54614;47.576;7.524;2023-11-21T09:00:10;98162.50;;;23.41;43.47
67818;BME280;54614;47.576;7.524;2023-11-21T09:02:41;98163.53;;;23.40;43.63
67818;BME280;54614;47.576;7.524;2023-11-21T09:05:12;98164.34;;;23.41;43.54
67818;BME280;54614;47.576;7.524;2023-11-21T09:07:41;98160.63;;;23.42;43.51
67818;BME280;54614;47.576;7.524;2023-11-21T09:10:08;98172.41;;;23.41;43.35
67818;BME280;54614;47.576;7.524;2023-11-21T09:12:36;98170.16;;;23.38;43.28
67818;BME280;54614;47.576;7.524;2023-11-21T09:15:07;98179.84;;;23.39;43.17
67818;BME280;54614;47.576;7.524;2023-11-21T09:17:34;98183.38;;;23.39;42.78
67818;BME280;54614;47.576;7.524;2023-11-21T09:20:00;98189.78;;;23.38;42.69
67818;BME280;54614;47.576;7.524;2023-11-21T09:22:26;98195.56;;;23.35;42.74
67818;BME280;54614;47.576;7.524;2023-11-21T09:24:52;98195.56;;;23.35;42.51
67818;BME280;54614;47.576;7.524;2023-11-21T09:27:19;98188.34;;;23.36;42.13
67818;BME280;54614;47.576;7.524;2023-11-21T09:29:45;98194.53;;;23.36;42.09
67818;BME280;54614;47.576;7.524;2023-11-21T09:32:13;98191.41;;;23.39;42.01
67818;BME280;54614;47.576;7.524;2023-11-21T09:34:40;98193.88;;;23.41;41.77
67818;BME280;54614;47.576;7.524;2023-11-21T09:37:07;98198.63;;;23.39;42.07
67818;BME280;54614;47.576;7.524;2023-11-21T09:39:34;98199.69;;;23.38;42.17
67818;BME280;54614;47.576;7.524;2023-11-21T09:47:35;98200.06;;;23.41;42.03
67818;BME280;54614;47.576;7.524;2023-11-21T09:50:02;98199.03;;;23.42;41.87
67818;BME280;54614;47.576;7.524;2023-11-21T09:52:28;98205.03;;;23.38;42.30
67818;BME280;54614;47.576;7.524;2023-11-21T09:54:56;98198.00;;;23.43;41.67
67818;BME280;54614;47.576;7.524;2023-11-21T09:57:25;98204.63;;;23.41;42.02
67818;BME280;54614;47.576;7.524;2023-11-21T09:59:52;98208.75;;;23.43;41.87
67818;BME280;54614;47.576;7.524;2023-11-21T10:02:28;98205.44;;;23.41;41.90
67818;BME280;54614;47.576;7.524;2023-11-21T10:04:56;98207.50;;;23.46;41.84
67818;BME280;54614;47.576;7.524;2023-11-21T10:07:23;98212.44;;;23.49;41.70
67818;BME280;54614;47.576;7.524;2023-11-21T10:09:51;98208.09;;;23.55;41.34
67818;BME280;54614;47.576;7.524;2023-11-21T10:12:18;98205.81;;;23.52;41.68
67818;BME280;54614;47.576;7.524;2023-11-21T10:14:49;98205.84;;;23.45;41.61
67818;BME280;54614;47.576;7.524;2023-11-21T10:17:18;98196.81;;;23.33;41.30
67818;BME280;54614;47.576;7.524;2023-11-21T10:19:47;98195.31;;;23.43;41.15
67818;BME280;54614;47.576;7.524;2023-11-21T10:22:15;98202.59;;;23.30;41.17
67818;BME280;54614;47.576;7.524;2023-11-21T10:24:41;98198.63;;;23.39;41.42
67818;BME280;54614;47.576;7.524;2023-11-21T10:27:09;98202.72;;;23.48;41.23
67818;BME280;54614;47.576;7.524;2023-11-21T10:29:35;98204.63;;;23.41;41.46
67818;BME280;54614;47.576;7.524;2023-11-21T10:32:02;98206.41;;;23.54;41.78
67818;BME280;54614;47.576;7.524;2023-11-21T10:34:29;98201.69;;;23.56;41.40
67818;BME280;54614;47.576;7.524;2023-11-21T10:36:55;98190.56;;;23.45;41.06
67818;BME280;54614;47.576;7.524;2023-11-21T10:39:24;98192.25;;;23.40;41.47
67818;BME280;54614;47.576;7.524;2023-11-21T10:41:54;98197.63;;;23.33;41.20
67818;BME280;54614;47.576;7.524;2023-11-21T10:44:21;98192.88;;;23.35;41.46
67818;BME280;54614;47.576;7.524;2023-11-21T10:47:04;98194.94;;;23.33;41.14
67818;BME280;54614;47.576;7.524;2023-11-21T10:49:30;98202.81;;;23.28;40.91
67818;BME280;54614;47.576;7.524;2023-11-21T10:51:57;98199.72;;;23.31;41.35
67818;BME280;54614;47.576;7.524;2023-11-21T10:54:24;98194.34;;;23.31;40.99
67818;BME280;54614;47.576;7.524;2023-11-21T10:57:00;98201.16;;;23.27;40.84
67818;BME280;54614;47.576;7.524;2023-11-21T10:59:31;98205.53;;;23.22;41.04
67818;BME280;54614;47.576;7.524;2023-11-21T11:02:02;98198.28;;;23.22;40.83
67818;BME280;54614;47.576;7.524;2023-11-21T11:04:32;98205.91;;;23.25;40.76
67818;BME280;54614;47.576;7.524;2023-11-21T11:07:02;98200.53;;;23.32;40.82
67818;BME280;54614;47.576;7.524;2023-11-21T11:09:31;98196.81;;;23.33;40.61
67818;BME280;54614;47.576;7.524;2023-11-21T11:12:01;98204.28;;;23.24;40.62
67818;BME280;54614;47.576;7.524;2023-11-21T11:14:28;98211.28;;;23.25;40.83
67818;BME280;54614;47.576;7.524;2023-11-21T11:16:54;98204.69;;;23.21;40.87
67818;BME280;54614;47.576;7.524;2023-11-21T11:19:21;98205.91;;;23.32;40.90
67818;BME280;54614;47.576;7.524;2023-11-21T11:22:24;98205.91;;;23.32;40.43
67818;BME280;54614;47.576;7.524;2023-11-21T11:28:20;98216.63;;;23.32;40.60
67818;BME280;54614;47.576;7.524;2023-11-21T11:34:29;98218.25;;;23.39;41.09
67818;BME280;54614;47.576;7.524;2023-11-21T11:37:02;98209.38;;;23.39;41.39
67818;BME280;54614;47.576;7.524;2023-11-21T11:39:36;98205.88;;;23.38;41.30
67818;BME280;54614;47.576;7.524;2023-11-21T11:42:07;98209.16;;;23.40;41.62
67818;BME280;54614;47.576;7.524;2023-11-21T11:47:28;98213.72;;;23.40;41.57
67818;BME280;54614;47.576;7.524;2023-11-21T11:50:04;98215.78;;;23.38;41.90
67818;BME280;54614;47.576;7.524;2023-11-21T11:52:50;98213.72;;;23.33;41.66
67818;BME280;54614;47.576;7.524;2023-11-21T11:55:20;98216.22;;;23.35;41.57
67818;BME280;54614;47.576;7.524;2023-11-21T11:57:52;98219.31;;;23.32;41.55
67818;BME280;54614;47.576;7.524;2023-11-21T12:00:34;98223.22;;;23.36;41.79
67818;BME280;54614;47.576;7.524;2023-11-21T12:03:04;98223.22;;;23.36;42.12
67818;BME280;54614;47.576;7.524;2023-11-21T12:05:33;98223.84;;;23.38;41.92
67818;BME280;54614;47.576;7.524;2023-11-21T12:08:03;98218.88;;;23.35;41.98
67818;BME280;54614;47.576;7.524;2023-11-21T12:10:35;98220.53;;;23.36;41.84
67818;BME280;54614;47.576;7.524;2023-11-21T12:13:07;98222.19;;;23.37;42.26
67818;BME280;54614;47.576;7.524;2023-11-21T12:15:37;98224.03;;;23.36;41.97
67818;BME280;54614;47.576;7.524;2023-11-21T12:18:04;98222.22;;;23.30;42.35
67818;BME280;54614;47.576;7.524;2023-11-21T12:20:31;98236.25;;;23.32;41.92
67818;BME280;54614;47.576;7.524;2023-11-21T12:23:01;98231.91;;;23.31;41.77
67818;BME280;54614;47.576;7.524;2023-11-21T12:25:31;98242.84;;;23.36;41.75
67818;BME280;54614;47.576;7.524;2023-11-21T12:27:59;98243.03;;;23.35;41.74
67818;BME280;54614;47.576;7.524;2023-11-21T12:30:30;98244.28;;;23.32;42.12
67818;BME280;54614;47.576;7.524;2023-11-21T12:32:58;98242.84;;;23.36;42.14
67818;BME280;54614;47.576;7.524;2023-11-21T12:35:35;98258.09;;;23.36;42.10
67818;BME280;54614;47.576;7.524;2023-11-21T12:38:04;98249.25;;;23.35;41.98
67818;BME280;54614;47.576;7.524;2023-11-21T12:40:34;98250.06;;;23.36;42.12
67818;BME280;54614;47.576;7.524;2023-11-21T12:43:00;98251.91;;;23.35;42.25
67818;BME280;54614;47.576;7.524;2023-11-21T12:45:30;98253.38;;;23.31;42.25
67818;BME280;54614;47.576;7.524;2023-11-21T12:48:02;98251.94;;;23.29;42.16
67818;BME280;54614;47.576;7.524;2023-11-21T12:50:34;98263.31;;;23.24;42.38
67818;BME280;54614;47.576;7.524;2023-11-21T12:53:10;98260.81;;;23.29;42.06
67818;BME280;54614;47.576;7.524;2023-11-21T12:55:38;98262.25;;;23.32;42.12
67818;BME280;54614;47.576;7.524;2023-11-21T12:58:08;98258.75;;;23.31;42.41
67818;BME280;54614;47.576;7.524;2023-11-21T13:00:48;98269.28;;;23.33;42.68
67818;BME280;54614;47.576;7.524;2023-11-21T13:03:16;98263.28;;;23.31;42.61
67818;BME280;54614;47.576;7.524;2023-11-21T13:05:49;98267.81;;;23.30;42.61
67818;BME280;54614;47.576;7.524;2023-11-21T13:08:22;98257.91;;;23.31;42.35
67818;BME280;54614;47.576;7.524;2023-11-21T13:10:54;98260.38;;;23.32;42.66
67818;BME280;54614;47.576;7.524;2023-11-21T13:13:23;98253.41;;;23.25;42.64
67818;BME280;54614;47.576;7.524;2023-11-21T13:15:53;98251.13;;;23.22;42.59
67818;BME280;54614;47.576;7.524;2023-11-21T13:18:22;98258.97;;;23.23;42.19